sensor_id;sensor_type;location;lat;lon;timestamp;P1;durP1;ratioP1;P2;durP2;ratioP2
15482;SDS011;7843;50.330;7.312;2023-07-16T00:00:12;0.28;;;0.28;;
15482;SDS011;7843;50.330;7.312;2023-07-16T00:02:41;0.38;;;0.30;;
15482;SDS011;7843;50.330;7.312;2023-07-16T00:05:08;0.28;;;0.28;;
15482;SDS011;7843;50.330;7.312;2023-07-16T00:07:35;0.30;;;0.30;;
15482;SDS011;7843;50.330;7.312;2023-07-16T00:10:01;0.20;;;0.20;;
15482;SDS011;7843;50.330;7.312;2023-07-16T00:12:28;4.30;;;0.30;;
15482;SDS011;7843;50.330;7.312;2023-07-16T00:14:55;0.50;;;0.20;;
15482;SDS011;7843;50.330;7.312;2023-07-16T00:17:23;0.25;;;0.25;;
15482;SDS011;7843;50.330;7.312;2023-07-16T00:19:49;0.40;;;0.40;;
15482;SDS011;7843;50.330;7.312;2023-07-16T00:22:16;0.60;;;0.40;;
15482;SDS011;7843;50.330;7.312;2023-07-16T00:24:43;1.30;;;0.40;;
15482;SDS011;7843;50.330;7.312;2023-07-16T00:27:10;3.23;;;0.43;;
15482;SDS011;7843;50.330;7.312;2023-07-16T00:29:36;1.30;;;0.40;;
15482;SDS011;7843;50.330;7.312;2023-07-16T00:32:03;0.73;;;0.50;;
15482;SDS011;7843;50.330;7.312;2023-07-16T00:34:30;0.40;;;0.40;;
15482;SDS011;7843;50.330;7.312;2023-07-16T00:36:57;1.50;;;0.70;;
15482;SDS011;7843;50.330;7.312;2023-07-16T00:39:28;0.80;;;0.40;;
15482;SDS011;7843;50.330;7.312;2023-07-16T00:41:55;0.30;;;0.30;;
15482;SDS011;7843;50.330;7.312;2023-07-16T00:44:22;0.40;;;0.40;;
15482;SDS011;7843;50.330;7.312;2023-07-16T00:46:49;1.30;;;0.60;;
15482;SDS011;7843;50.330;7.312;2023-07-16T00:49:16;0.60;;;0.45;;
15482;SDS011;7843;50.330;7.312;2023-07-16T00:51:43;0.68;;;0.43;;
15482;SDS011;7843;50.330;7.312;2023-07-16T00:54:10;0.70;;;0.50;;
15482;SDS011;7843;50.330;7.312;2023-07-16T00:56:37;1.35;;;0.60;;
15482;SDS011;7843;50.330;7.312;2023-07-16T00:59:04;0.40;;;0.40;;
15482;SDS011;7843;50.330;7.312;2023-07-16T01:01:31;0.57;;;0.30;;
15482;SDS011;7843;50.330;7.312;2023-07-16T01:03:58;0.80;;;0.43;;
15482;SDS011;7843;50.330;7.312;2023-07-16T01:06:30;0.73;;;0.30;;
15482;SDS011;7843;50.330;7.312;2023-07-16T01:09:03;1.10;;;0.47;;
15482;SDS011;7843;50.330;7.312;2023-07-16T01:11:36;1.60;;;0.60;;
15482;SDS011;7843;50.330;7.312;2023-07-16T01:14:06;4.35;;;0.60;;
15482;SDS011;7843;50.330;7.312;2023-07-16T01:16:34;2.97;;;0.50;;
15482;SDS011;7843;50.330;7.312;2023-07-16T01:19:00;0.50;;;0.40;;
15482;SDS011;7843;50.330;7.312;2023-07-16T01:21:30;0.75;;;0.47;;
15482;SDS011;7843;50.330;7.312;2023-07-16T01:32:05;0.73;;;0.68;;
15482;SDS011;7843;50.330;7.312;2023-07-16T01:34:33;1.58;;;0.65;;
15482;SDS011;7843;50.330;7.312;2023-07-16T01:37:02;0.43;;;0.32;;
15482;SDS011;7843;50.330;7.312;2023-07-16T01:39:30;0.70;;;0.40;;
15482;SDS011;7843;50.330;7.312;2023-07-16T01:41:58;0.25;;;0.20;;
15482;SDS011;7843;50.330;7.312;2023-07-16T01:44:26;0.73;;;0.70;;
15482;SDS011;7843;50.330;7.312;2023-07-16T01:47:11;0.35;;;0.32;;
15482;SDS011;7843;50.330;7.312;2023-07-16T01:49:40;1.80;;;0.50;;
15482;SDS011;7843;50.330;7.312;2023-07-16T01:52:10;3.00;;;0.50;;
15482;SDS011;7843;50.330;7.312;2023-07-16T01:54:36;0.32;;;0.30;;
15482;SDS011;7843;50.330;7.312;2023-07-16T01:57:03;0.70;;;0.40;;
15482;SDS011;7843;50.330;7.312;2023-07-16T01:59:30;0.47;;;0.28;;
15482;SDS011;7843;50.330;7.312;2023-07-16T02:01:57;0.52;;;0.30;;
15482;SDS011;7843;50.330;7.312;2023-07-16T02:04:24;0.73;;;0.60;;
15482;SDS011;7843;50.330;7.312;2023-07-16T02:06:51;0.55;;;0.43;;
15482;SDS011;7843;50.330;7.312;2023-07-16T02:09:17;2.40;;;0.47;;
15482;SDS011;7843;50.330;7.312;2023-07-16T02:11:44;0.50;;;0.50;;
15482;SDS011;7843;50.330;7.312;2023-07-16T02:14:11;2.30;;;0.40;;
15482;SDS011;7843;50.330;7.312;2023-07-16T02:16:39;0.43;;;0.43;;
15482;SDS011;7843;50.330;7.312;2023-07-16T02:19:06;0.90;;;0.70;;
15482;SDS011;7843;50.330;7.312;2023-07-16T02:21:32;0.47;;;0.47;;
15482;SDS011;7843;50.330;7.312;2023-07-16T02:23:59;0.60;;;0.47;;
15482;SDS011;7843;50.330;7.312;2023-07-16T02:26:26;1.87;;;0.87;;
15482;SDS011;7843;50.330;7.312;2023-07-16T02:28:52;0.60;;;0.50;;
15482;SDS011;7843;50.330;7.312;2023-07-16T02:31:19;0.70;;;0.45;;
15482;SDS011;7843;50.330;7.312;2023-07-16T02:33:46;0.90;;;0.60;;
15482;SDS011;7843;50.330;7.312;2023-07-16T02:36:12;1.67;;;0.70;;
15482;SDS011;7843;50.330;7.312;2023-07-16T02:38:39;1.20;;;0.47;;
15482;SDS011;7843;50.330;7.312;2023-07-16T02:41:06;0.90;;;0.55;;
15482;SDS011;7843;50.330;7.312;2023-07-16T02:43:33;0.50;;;0.40;;
15482;SDS011;7843;50.330;7.312;2023-07-16T02:45:59;0.80;;;0.50;;
15482;SDS011;7843;50.330;7.312;2023-07-16T02:48:26;1.60;;;0.47;;
15482;SDS011;7843;50.330;7.312;2023-07-16T02:50:53;0.90;;;0.50;;
15482;SDS011;7843;50.330;7.312;2023-07-16T02:53:19;0.35;;;0.35;;
15482;SDS011;7843;50.330;7.312;2023-07-16T02:55:46;0.52;;;0.40;;
15482;SDS011;7843;50.330;7.312;2023-07-16T02:58:13;0.83;;;0.33;;
15482;SDS011;7843;50.330;7.312;2023-07-16T03:00:40;3.00;;;0.43;;
15482;SDS011;7843;50.330;7.312;2023-07-16T03:03:06;3.83;;;0.73;;
15482;SDS011;7843;50.330;7.312;2023-07-16T03:05:33;1.60;;;0.50;;
15482;SDS011;7843;50.330;7.312;2023-07-16T03:08:00;1.58;;;0.57;;
15482;SDS011;7843;50.330;7.312;2023-07-16T03:10:27;1.58;;;0.52;;
15482;SDS011;7843;50.330;7.312;2023-07-16T03:12:53;0.77;;;0.47;;
15482;SDS011;7843;50.330;7.312;2023-07-16T03:15:20;1.13;;;0.63;;
15482;SDS011;7843;50.330;7.312;2023-07-16T03:17:47;3.25;;;0.63;;
15482;SDS011;7843;50.330;7.312;2023-07-16T03:20:14;1.77;;;0.40;;
15482;SDS011;7843;50.330;7.312;2023-07-16T03:22:41;2.17;;;0.38;;
15482;SDS011;7843;50.330;7.312;2023-07-16T03:25:07;0.40;;;0.38;;
15482;SDS011;7843;50.330;7.312;2023-07-16T03:27:34;1.20;;;0.30;;
15482;SDS011;7843;50.330;7.312;2023-07-16T03:30:01;0.35;;;0.35;;
15482;SDS011;7843;50.330;7.312;2023-07-16T03:32:28;0.30;;;0.20;;
15482;SDS011;7843;50.330;7.312;2023-07-16T03:34:59;2.00;;;0.57;;
15482;SDS011;7843;50.330;7.312;2023-07-16T03:37:26;2.05;;;0.70;;
15482;SDS011;7843;50.330;7.312;2023-07-16T03:39:53;0.60;;;0.40;;
15482;SDS011;7843;50.330;7.312;2023-07-16T03:42:19;1.30;;;0.60;;
15482;SDS011;7843;50.330;7.312;2023-07-16T03:44:48;0.98;;;0.50;;
15482;SDS011;7843;50.330;7.312;2023-07-16T03:47:15;1.65;;;0.57;;
15482;SDS011;7843;50.330;7.312;2023-07-16T03:49:42;0.80;;;0.37;;
15482;SDS011;7843;50.330;7.312;2023-07-16T03:52:08;0.85;;;0.50;;
15482;SDS011;7843;50.330;7.312;2023-07-16T03:54:35;3.78;;;0.77;;
15482;SDS011;7843;50.330;7.312;2023-07-16T03:57:02;3.70;;;0.60;;
15482;SDS011;7843;50.330;7.312;2023-07-16T03:59:29;0.50;;;0.50;;
15482;SDS011;7843;50.330;7.312;2023-07-16T04:01:55;0.32;;;0.32;;
15482;SDS011;7843;50.330;7.312;2023-07-16T04:04:22;0.30;;;0.30;;
15482;SDS011;7843;50.330;7.312;2023-07-16T04:06:49;0.50;;;0.40;;
15482;SDS011;7843;50.330;7.312;2023-07-16T04:09:15;1.00;;;0.30;;
15482;SDS011;7843;50.330;7.312;2023-07-16T04:11:42;2.50;;;0.93;;
15482;SDS011;7843;50.330;7.312;2023-07-16T04:14:09;1.38;;;0.43;;
15482;SDS011;7843;50.330;7.312;2023-07-16T04:16:35;2.60;;;0.60;;
15482;SDS011;7843;50.330;7.312;2023-07-16T04:19:02;2.38;;;0.45;;
15482;SDS011;7843;50.330;7.312;2023-07-16T04:21:29;1.90;;;0.70;;
15482;SDS011;7843;50.330;7.312;2023-07-16T04:23:56;0.47;;;0.40;;
15482;SDS011;7843;50.330;7.312;2023-07-16T04:26:22;3.60;;;1.20;;
15482;SDS011;7843;50.330;7.312;2023-07-16T04:28:49;1.30;;;0.68;;
15482;SDS011;7843;50.330;7.312;2023-07-16T04:31:16;0.98;;;0.47;;
15482;SDS011;7843;50.330;7.312;2023-07-16T04:33:42;0.82;;;0.65;;
15482;SDS011;7843;50.330;7.312;2023-07-16T04:36:09;0.55;;;0.45;;
15482;SDS011;7843;50.330;7.312;2023-07-16T04:38:36;0.40;;;0.38;;
15482;SDS011;7843;50.330;7.312;2023-07-16T04:41:02;0.97;;;0.67;;
15482;SDS011;7843;50.330;7.312;2023-07-16T04:43:29;3.20;;;0.52;;
15482;SDS011;7843;50.330;7.312;2023-07-16T04:45:56;5.20;;;0.73;;
15482;SDS011;7843;50.330;7.312;2023-07-16T04:48:23;3.65;;;0.65;;
15482;SDS011;7843;50.330;7.312;2023-07-16T04:50:50;0.52;;;0.50;;
15482;SDS011;7843;50.330;7.312;2023-07-16T04:53:18;0.70;;;0.38;;
15482;SDS011;7843;50.330;7.312;2023-07-16T04:55:45;0.40;;;0.40;;
15482;SDS011;7843;50.330;7.312;2023-07-16T04:58:11;0.70;;;0.47;;
15482;SDS011;7843;50.330;7.312;2023-07-16T05:00:38;0.90;;;0.50;;
15482;SDS011;7843;50.330;7.312;2023-07-16T05:03:05;1.40;;;0.57;;
15482;SDS011;7843;50.330;7.312;2023-07-16T05:05:32;3.80;;;0.80;;
15482;SDS011;7843;50.330;7.312;2023-07-16T05:07:59;1.98;;;0.65;;
15482;SDS011;7843;50.330;7.312;2023-07-16T05:10:26;0.50;;;0.47;;
15482;SDS011;7843;50.330;7.312;2023-07-16T05:12:54;1.65;;;0.95;;
15482;SDS011;7843;50.330;7.312;2023-07-16T05:15:20;5.57;;;0.63;;
15482;SDS011;7843;50.330;7.312;2023-07-16T05:17:48;1.50;;;0.88;;
15482;SDS011;7843;50.330;7.312;2023-07-16T05:20:14;3.30;;;0.80;;
15482;SDS011;7843;50.330;7.312;2023-07-16T05:22:41;1.40;;;0.60;;
15482;SDS011;7843;50.330;7.312;2023-07-16T05:25:08;3.00;;;0.57;;
15482;SDS011;7843;50.330;7.312;2023-07-16T05:27:35;1.88;;;0.90;;
15482;SDS011;7843;50.330;7.312;2023-07-16T05:30:02;1.05;;;0.75;;
15482;SDS011;7843;50.330;7.312;2023-07-16T05:32:29;3.60;;;0.75;;
15482;SDS011;7843;50.330;7.312;2023-07-16T05:34:56;2.90;;;0.90;;
15482;SDS011;7843;50.330;7.312;2023-07-16T05:37:25;1.30;;;0.57;;
15482;SDS011;7843;50.330;7.312;2023-07-16T05:39:52;0.52;;;0.52;;
15482;SDS011;7843;50.330;7.312;2023-07-16T05:42:19;4.50;;;0.98;;
15482;SDS011;7843;50.330;7.312;2023-07-16T05:44:49;2.30;;;0.70;;
15482;SDS011;7843;50.330;7.312;2023-07-16T05:47:16;2.13;;;0.73;;
15482;SDS011;7843;50.330;7.312;2023-07-16T05:49:42;2.83;;;0.75;;
15482;SDS011;7843;50.330;7.312;2023-07-16T05:52:09;3.20;;;0.80;;
15482;SDS011;7843;50.330;7.312;2023-07-16T05:54:36;1.15;;;0.57;;
15482;SDS011;7843;50.330;7.312;2023-07-16T05:57:02;1.50;;;0.82;;
15482;SDS011;7843;50.330;7.312;2023-07-16T05:59:29;2.97;;;0.60;;
15482;SDS011;7843;50.330;7.312;2023-07-16T06:02:00;0.65;;;0.50;;
15482;SDS011;7843;50.330;7.312;2023-07-16T06:04:27;5.70;;;0.70;;
15482;SDS011;7843;50.330;7.312;2023-07-16T06:06:54;2.70;;;0.60;;
15482;SDS011;7843;50.330;7.312;2023-07-16T06:09:20;4.70;;;1.00;;
15482;SDS011;7843;50.330;7.312;2023-07-16T06:11:47;1.52;;;0.85;;
15482;SDS011;7843;50.330;7.312;2023-07-16T06:14:14;4.93;;;1.10;;
15482;SDS011;7843;50.330;7.312;2023-07-16T06:16:41;2.20;;;0.80;;
15482;SDS011;7843;50.330;7.312;2023-07-16T06:19:08;5.07;;;0.90;;
15482;SDS011;7843;50.330;7.312;2023-07-16T06:21:35;2.15;;;0.85;;
15482;SDS011;7843;50.330;7.312;2023-07-16T06:24:01;2.20;;;0.88;;
15482;SDS011;7843;50.330;7.312;2023-07-16T06:26:28;2.15;;;1.08;;
15482;SDS011;7843;50.330;7.312;2023-07-16T06:28:55;2.67;;;0.70;;
15482;SDS011;7843;50.330;7.312;2023-07-16T06:31:22;0.75;;;0.75;;
15482;SDS011;7843;50.330;7.312;2023-07-16T06:33:49;1.55;;;0.85;;
15482;SDS011;7843;50.330;7.312;2023-07-16T06:36:17;1.40;;;0.80;;
15482;SDS011;7843;50.330;7.312;2023-07-16T06:38:44;2.80;;;1.08;;
15482;SDS011;7843;50.330;7.312;2023-07-16T06:41:10;1.40;;;1.02;;
15482;SDS011;7843;50.330;7.312;2023-07-16T06:43:37;3.03;;;0.93;;
15482;SDS011;7843;50.330;7.312;2023-07-16T06:46:04;7.25;;;0.93;;
15482;SDS011;7843;50.330;7.312;2023-07-16T06:48:30;3.50;;;1.10;;
15482;SDS011;7843;50.330;7.312;2023-07-16T06:50:57;2.88;;;1.20;;
15482;SDS011;7843;50.330;7.312;2023-07-16T06:53:24;4.72;;;1.10;;
15482;SDS011;7843;50.330;7.312;2023-07-16T06:55:50;2.33;;;1.02;;
15482;SDS011;7843;50.330;7.312;2023-07-16T06:58:18;1.08;;;0.80;;
15482;SDS011;7843;50.330;7.312;2023-07-16T07:00:45;1.93;;;1.20;;
15482;SDS011;7843;50.330;7.312;2023-07-16T07:03:11;1.80;;;0.80;;
15482;SDS011;7843;50.330;7.312;2023-07-16T07:05:40;0.95;;;0.70;;
15482;SDS011;7843;50.330;7.312;2023-07-16T07:08:07;2.60;;;1.10;;
15482;SDS011;7843;50.330;7.312;2023-07-16T07:10:34;2.55;;;0.90;;
15482;SDS011;7843;50.330;7.312;2023-07-16T07:13:03;1.02;;;0.63;;
15482;SDS011;7843;50.330;7.312;2023-07-16T07:15:30;1.00;;;0.90;;
15482;SDS011;7843;50.330;7.312;2023-07-16T07:17:57;3.03;;;1.30;;
15482;SDS011;7843;50.330;7.312;2023-07-16T07:20:23;3.55;;;0.90;;
15482;SDS011;7843;50.330;7.312;2023-07-16T07:22:50;3.40;;;1.15;;
15482;SDS011;7843;50.330;7.312;2023-07-16T07:25:17;3.88;;;1.20;;
15482;SDS011;7843;50.330;7.312;2023-07-16T07:27:44;1.30;;;0.60;;
15482;SDS011;7843;50.330;7.312;2023-07-16T07:30:11;4.10;;;1.15;;
15482;SDS011;7843;50.330;7.312;2023-07-16T07:32:38;2.95;;;1.00;;
15482;SDS011;7843;50.330;7.312;2023-07-16T07:35:05;3.65;;;1.08;;
15482;SDS011;7843;50.330;7.312;2023-07-16T07:37:32;3.88;;;0.98;;
15482;SDS011;7843;50.330;7.312;2023-07-16T07:39:59;1.37;;;0.80;;
15482;SDS011;7843;50.330;7.312;2023-07-16T07:42:25;1.65;;;1.13;;
15482;SDS011;7843;50.330;7.312;2023-07-16T07:44:54;2.30;;;1.27;;
15482;SDS011;7843;50.330;7.312;2023-07-16T07:47:21;4.73;;;1.37;;
15482;SDS011;7843;50.330;7.312;2023-07-16T07:49:48;4.28;;;1.38;;
15482;SDS011;7843;50.330;7.312;2023-07-16T07:52:14;3.05;;;0.90;;
15482;SDS011;7843;50.330;7.312;2023-07-16T07:54:41;3.03;;;1.27;;
15482;SDS011;7843;50.330;7.312;2023-07-16T07:57:08;1.65;;;1.00;;
15482;SDS011;7843;50.330;7.312;2023-07-16T07:59:34;3.72;;;1.58;;
15482;SDS011;7843;50.330;7.312;2023-07-16T08:02:01;4.75;;;1.48;;
15482;SDS011;7843;50.330;7.312;2023-07-16T08:04:28;1.38;;;0.93;;
15482;SDS011;7843;50.330;7.312;2023-07-16T08:06:55;3.75;;;1.42;;
15482;SDS011;7843;50.330;7.312;2023-07-16T08:09:22;2.83;;;1.58;;
15482;SDS011;7843;50.330;7.312;2023-07-16T08:11:48;2.42;;;1.23;;
15482;SDS011;7843;50.330;7.312;2023-07-16T08:14:15;2.33;;;1.40;;
15482;SDS011;7843;50.330;7.312;2023-07-16T08:16:42;2.10;;;1.10;;
15482;SDS011;7843;50.330;7.312;2023-07-16T08:19:09;2.75;;;1.52;;
15482;SDS011;7843;50.330;7.312;2023-07-16T08:21:36;2.35;;;1.38;;
15482;SDS011;7843;50.330;7.312;2023-07-16T08:24:06;3.83;;;1.30;;
15482;SDS011;7843;50.330;7.312;2023-07-16T08:26:33;2.60;;;1.57;;
15482;SDS011;7843;50.330;7.312;2023-07-16T08:29:00;1.73;;;1.15;;
15482;SDS011;7843;50.330;7.312;2023-07-16T08:31:27;1.98;;;0.98;;
15482;SDS011;7843;50.330;7.312;2023-07-16T08:33:54;4.80;;;1.38;;
15482;SDS011;7843;50.330;7.312;2023-07-16T08:36:21;3.35;;;1.55;;
15482;SDS011;7843;50.330;7.312;2023-07-16T08:38:47;3.85;;;1.23;;
15482;SDS011;7843;50.330;7.312;2023-07-16T08:41:14;7.03;;;1.10;;
15482;SDS011;7843;50.330;7.312;2023-07-16T08:43:41;1.83;;;1.13;;
15482;SDS011;7843;50.330;7.312;2023-07-16T08:46:11;3.75;;;1.38;;
15482;SDS011;7843;50.330;7.312;2023-07-16T08:48:38;2.60;;;1.27;;
15482;SDS011;7843;50.330;7.312;2023-07-16T08:51:05;2.83;;;1.73;;
15482;SDS011;7843;50.330;7.312;2023-07-16T08:53:33;4.28;;;1.85;;
15482;SDS011;7843;50.330;7.312;2023-07-16T08:56:00;3.75;;;1.45;;
15482;SDS011;7843;50.330;7.312;2023-07-16T08:58:28;2.60;;;1.55;;
15482;SDS011;7843;50.330;7.312;2023-07-16T09:00:57;4.43;;;2.13;;
15482;SDS011;7843;50.330;7.312;2023-07-16T09:03:25;2.10;;;1.30;;
15482;SDS011;7843;50.330;7.312;2023-07-16T09:05:53;1.70;;;1.25;;
15482;SDS011;7843;50.330;7.312;2023-07-16T09:08:20;2.50;;;1.23;;
15482;SDS011;7843;50.330;7.312;2023-07-16T09:10:54;2.58;;;1.77;;
15482;SDS011;7843;50.330;7.312;2023-07-16T09:13:21;2.30;;;1.30;;
15482;SDS011;7843;50.330;7.312;2023-07-16T09:15:55;1.50;;;1.25;;
15482;SDS011;7843;50.330;7.312;2023-07-16T09:18:24;5.88;;;1.20;;
15482;SDS011;7843;50.330;7.312;2023-07-16T09:20:55;4.00;;;1.42;;
15482;SDS011;7843;50.330;7.312;2023-07-16T09:23:24;2.22;;;1.33;;
15482;SDS011;7843;50.330;7.312;2023-07-16T09:25:53;2.47;;;1.23;;
15482;SDS011;7843;50.330;7.312;2023-07-16T09:28:20;4.57;;;1.20;;
15482;SDS011;7843;50.330;7.312;2023-07-16T09:30:47;2.40;;;1.20;;
15482;SDS011;7843;50.330;7.312;2023-07-16T09:33:20;3.10;;;1.20;;
15482;SDS011;7843;50.330;7.312;2023-07-16T09:35:50;2.35;;;1.50;;
15482;SDS011;7843;50.330;7.312;2023-07-16T09:38:18;2.20;;;1.40;;
15482;SDS011;7843;50.330;7.312;2023-07-16T09:40:45;2.87;;;1.67;;
15482;SDS011;7843;50.330;7.312;2023-07-16T09:43:12;1.77;;;1.17;;
15482;SDS011;7843;50.330;7.312;2023-07-16T09:45:39;2.90;;;1.40;;
15482;SDS011;7843;50.330;7.312;2023-07-16T09:48:07;3.80;;;1.63;;
15482;SDS011;7843;50.330;7.312;2023-07-16T09:50:35;1.65;;;1.52;;
15482;SDS011;7843;50.330;7.312;2023-07-16T09:53:06;2.22;;;1.13;;
15482;SDS011;7843;50.330;7.312;2023-07-16T09:55:34;3.05;;;1.10;;
15482;SDS011;7843;50.330;7.312;2023-07-16T09:58:03;1.75;;;1.20;;
15482;SDS011;7843;50.330;7.312;2023-07-16T10:00:35;3.15;;;1.35;;
15482;SDS011;7843;50.330;7.312;2023-07-16T10:03:05;1.97;;;1.00;;
15482;SDS011;7843;50.330;7.312;2023-07-16T10:05:35;2.53;;;1.40;;
15482;SDS011;7843;50.330;7.312;2023-07-16T10:08:03;1.83;;;1.13;;
15482;SDS011;7843;50.330;7.312;2023-07-16T10:10:39;2.15;;;1.45;;
15482;SDS011;7843;50.330;7.312;2023-07-16T10:13:08;3.23;;;1.17;;
15482;SDS011;7843;50.330;7.312;2023-07-16T10:15:37;7.07;;;1.30;;
15482;SDS011;7843;50.330;7.312;2023-07-16T10:18:04;2.25;;;0.88;;
15482;SDS011;7843;50.330;7.312;2023-07-16T10:20:35;1.83;;;1.30;;
15482;SDS011;7843;50.330;7.312;2023-07-16T10:23:12;1.50;;;1.27;;
15482;SDS011;7843;50.330;7.312;2023-07-16T10:25:40;2.42;;;1.20;;
15482;SDS011;7843;50.330;7.312;2023-07-16T10:28:23;2.80;;;1.08;;
15482;SDS011;7843;50.330;7.312;2023-07-16T10:30:50;1.93;;;1.20;;
15482;SDS011;7843;50.330;7.312;2023-07-16T10:33:17;2.90;;;1.17;;
15482;SDS011;7843;50.330;7.312;2023-07-16T10:35:45;2.50;;;1.20;;
15482;SDS011;7843;50.330;7.312;2023-07-16T10:38:12;2.20;;;1.40;;
15482;SDS011;7843;50.330;7.312;2023-07-16T10:40:40;3.20;;;1.00;;
15482;SDS011;7843;50.330;7.312;2023-07-16T10:43:08;1.45;;;1.05;;
15482;SDS011;7843;50.330;7.312;2023-07-16T10:45:35;2.47;;;1.20;;
15482;SDS011;7843;50.330;7.312;2023-07-16T10:48:03;2.10;;;1.38;;
15482;SDS011;7843;50.330;7.312;2023-07-16T10:50:33;3.65;;;1.40;;
15482;SDS011;7843;50.330;7.312;2023-07-16T10:53:01;1.50;;;1.00;;
15482;SDS011;7843;50.330;7.312;2023-07-16T10:55:29;1.58;;;1.13;;
15482;SDS011;7843;50.330;7.312;2023-07-16T10:57:58;2.80;;;1.60;;
15482;SDS011;7843;50.330;7.312;2023-07-16T11:00:32;3.55;;;1.40;;
15482;SDS011;7843;50.330;7.312;2023-07-16T11:03:02;2.42;;;1.27;;
15482;SDS011;7843;50.330;7.312;2023-07-16T11:05:29;3.55;;;1.17;;
15482;SDS011;7843;50.330;7.312;2023-07-16T11:07:56;5.78;;;1.33;;
15482;SDS011;7843;50.330;7.312;2023-07-16T11:10:23;1.73;;;1.30;;
15482;SDS011;7843;50.330;7.312;2023-07-16T11:12:51;1.75;;;1.40;;
15482;SDS011;7843;50.330;7.312;2023-07-16T11:15:31;1.95;;;1.30;;
15482;SDS011;7843;50.330;7.312;2023-07-16T11:17:59;1.90;;;1.00;;
15482;SDS011;7843;50.330;7.312;2023-07-16T11:20:30;2.63;;;1.33;;
15482;SDS011;7843;50.330;7.312;2023-07-16T11:23:00;2.25;;;1.40;;
15482;SDS011;7843;50.330;7.312;2023-07-16T11:25:27;3.05;;;1.00;;
15482;SDS011;7843;50.330;7.312;2023-07-16T11:27:54;1.67;;;1.10;;
15482;SDS011;7843;50.330;7.312;2023-07-16T11:30:25;11.52;;;1.20;;
15482;SDS011;7843;50.330;7.312;2023-07-16T11:32:53;2.13;;;0.93;;
15482;SDS011;7843;50.330;7.312;2023-07-16T11:35:21;5.15;;;1.17;;
15482;SDS011;7843;50.330;7.312;2023-07-16T11:37:48;1.75;;;1.20;;
15482;SDS011;7843;50.330;7.312;2023-07-16T11:40:15;2.97;;;1.08;;
15482;SDS011;7843;50.330;7.312;2023-07-16T11:42:43;1.20;;;1.00;;
15482;SDS011;7843;50.330;7.312;2023-07-16T11:45:23;2.40;;;1.13;;
15482;SDS011;7843;50.330;7.312;2023-07-16T11:47:53;1.67;;;1.00;;
15482;SDS011;7843;50.330;7.312;2023-07-16T11:50:20;3.60;;;1.50;;
15482;SDS011;7843;50.330;7.312;2023-07-16T11:52:54;2.60;;;1.10;;
15482;SDS011;7843;50.330;7.312;2023-07-16T11:55:22;3.45;;;1.27;;
15482;SDS011;7843;50.330;7.312;2023-07-16T11:57:49;2.53;;;1.55;;
15482;SDS011;7843;50.330;7.312;2023-07-16T12:00:16;2.50;;;1.30;;
15482;SDS011;7843;50.330;7.312;2023-07-16T12:02:43;2.10;;;1.40;;
15482;SDS011;7843;50.330;7.312;2023-07-16T12:05:20;2.55;;;1.02;;
15482;SDS011;7843;50.330;7.312;2023-07-16T12:07:53;4.18;;;1.42;;
15482;SDS011;7843;50.330;7.312;2023-07-16T12:10:20;1.43;;;1.20;;
15482;SDS011;7843;50.330;7.312;2023-07-16T12:12:47;3.38;;;1.60;;
15482;SDS011;7843;50.330;7.312;2023-07-16T12:15:14;3.72;;;1.17;;
15482;SDS011;7843;50.330;7.312;2023-07-16T12:17:41;1.40;;;1.08;;
15482;SDS011;7843;50.330;7.312;2023-07-16T12:20:07;2.07;;;1.00;;
15482;SDS011;7843;50.330;7.312;2023-07-16T12:22:34;3.47;;;1.30;;
15482;SDS011;7843;50.330;7.312;2023-07-16T12:25:02;2.60;;;0.90;;
15482;SDS011;7843;50.330;7.312;2023-07-16T12:27:30;2.47;;;0.93;;
15482;SDS011;7843;50.330;7.312;2023-07-16T12:29:56;3.77;;;1.10;;
15482;SDS011;7843;50.330;7.312;2023-07-16T12:32:23;1.50;;;1.00;;
15482;SDS011;7843;50.330;7.312;2023-07-16T12:34:50;1.98;;;0.90;;
15482;SDS011;7843;50.330;7.312;2023-07-16T12:37:16;1.90;;;1.05;;
15482;SDS011;7843;50.330;7.312;2023-07-16T12:39:43;2.65;;;1.27;;
15482;SDS011;7843;50.330;7.312;2023-07-16T12:42:10;1.67;;;0.90;;
15482;SDS011;7843;50.330;7.312;2023-07-16T12:44:36;1.98;;;1.10;;
15482;SDS011;7843;50.330;7.312;2023-07-16T12:47:03;4.60;;;1.20;;
15482;SDS011;7843;50.330;7.312;2023-07-16T12:49:31;2.28;;;1.27;;
15482;SDS011;7843;50.330;7.312;2023-07-16T12:51:58;3.42;;;1.10;;
15482;SDS011;7843;50.330;7.312;2023-07-16T12:54:24;2.75;;;1.17;;
15482;SDS011;7843;50.330;7.312;2023-07-16T12:56:51;2.45;;;1.10;;
15482;SDS011;7843;50.330;7.312;2023-07-16T12:59:18;1.75;;;1.00;;
15482;SDS011;7843;50.330;7.312;2023-07-16T13:01:44;3.40;;;1.00;;
15482;SDS011;7843;50.330;7.312;2023-07-16T13:04:11;4.93;;;1.45;;
15482;SDS011;7843;50.330;7.312;2023-07-16T13:06:38;5.53;;;1.15;;
15482;SDS011;7843;50.330;7.312;2023-07-16T13:09:05;2.57;;;1.00;;
15482;SDS011;7843;50.330;7.312;2023-07-16T13:11:31;2.55;;;1.38;;
15482;SDS011;7843;50.330;7.312;2023-07-16T13:13:58;3.80;;;1.00;;
15482;SDS011;7843;50.330;7.312;2023-07-16T13:16:25;7.35;;;1.20;;
15482;SDS011;7843;50.330;7.312;2023-07-16T13:18:52;1.80;;;1.20;;
15482;SDS011;7843;50.330;7.312;2023-07-16T13:21:19;1.70;;;0.90;;
15482;SDS011;7843;50.330;7.312;2023-07-16T13:23:46;2.70;;;1.00;;
15482;SDS011;7843;50.330;7.312;2023-07-16T13:26:12;1.27;;;0.87;;
15482;SDS011;7843;50.330;7.312;2023-07-16T13:28:40;1.77;;;1.10;;
15482;SDS011;7843;50.330;7.312;2023-07-16T13:31:06;2.00;;;1.30;;
15482;SDS011;7843;50.330;7.312;2023-07-16T13:33:33;1.45;;;1.00;;
15482;SDS011;7843;50.330;7.312;2023-07-16T13:36:02;2.38;;;1.38;;
15482;SDS011;7843;50.330;7.312;2023-07-16T13:38:30;2.20;;;0.93;;
15482;SDS011;7843;50.330;7.312;2023-07-16T13:40:57;2.03;;;1.10;;
15482;SDS011;7843;50.330;7.312;2023-07-16T13:43:24;1.80;;;1.10;;
15482;SDS011;7843;50.330;7.312;2023-07-16T13:45:51;3.50;;;0.93;;
15482;SDS011;7843;50.330;7.312;2023-07-16T13:48:19;3.60;;;1.10;;
15482;SDS011;7843;50.330;7.312;2023-07-16T13:50:46;1.58;;;0.80;;
15482;SDS011;7843;50.330;7.312;2023-07-16T13:53:13;1.35;;;0.73;;
15482;SDS011;7843;50.330;7.312;2023-07-16T13:55:40;2.45;;;0.82;;
15482;SDS011;7843;50.330;7.312;2023-07-16T13:58:07;2.33;;;0.90;;
15482;SDS011;7843;50.330;7.312;2023-07-16T14:00:34;3.05;;;0.93;;
15482;SDS011;7843;50.330;7.312;2023-07-16T14:03:00;1.93;;;0.70;;
15482;SDS011;7843;50.330;7.312;2023-07-16T14:05:27;1.13;;;0.75;;
15482;SDS011;7843;50.330;7.312;2023-07-16T14:07:54;1.95;;;0.80;;
15482;SDS011;7843;50.330;7.312;2023-07-16T14:10:20;1.98;;;1.08;;
15482;SDS011;7843;50.330;7.312;2023-07-16T14:12:47;3.33;;;1.10;;
15482;SDS011;7843;50.330;7.312;2023-07-16T14:15:14;2.43;;;0.90;;
15482;SDS011;7843;50.330;7.312;2023-07-16T14:17:41;1.50;;;0.95;;
15482;SDS011;7843;50.330;7.312;2023-07-16T14:20:08;1.45;;;1.00;;
15482;SDS011;7843;50.330;7.312;2023-07-16T14:22:36;1.25;;;0.77;;
15482;SDS011;7843;50.330;7.312;2023-07-16T14:25:04;1.63;;;1.00;;
15482;SDS011;7843;50.330;7.312;2023-07-16T14:27:32;2.25;;;1.20;;
15482;SDS011;7843;50.330;7.312;2023-07-16T14:29:59;1.42;;;0.50;;
15482;SDS011;7843;50.330;7.312;2023-07-16T14:32:30;1.87;;;0.83;;
15482;SDS011;7843;50.330;7.312;2023-07-16T14:34:57;2.58;;;0.93;;
15482;SDS011;7843;50.330;7.312;2023-07-16T14:37:24;2.05;;;0.88;;
15482;SDS011;7843;50.330;7.312;2023-07-16T14:39:51;1.73;;;1.08;;
15482;SDS011;7843;50.330;7.312;2023-07-16T14:42:17;5.07;;;1.10;;
15482;SDS011;7843;50.330;7.312;2023-07-16T14:44:44;1.60;;;1.08;;
15482;SDS011;7843;50.330;7.312;2023-07-16T14:47:11;3.65;;;0.88;;
15482;SDS011;7843;50.330;7.312;2023-07-16T14:49:37;4.00;;;1.10;;
15482;SDS011;7843;50.330;7.312;2023-07-16T14:52:04;4.50;;;0.90;;
15482;SDS011;7843;50.330;7.312;2023-07-16T14:54:31;0.90;;;0.70;;
15482;SDS011;7843;50.330;7.312;2023-07-16T14:57:00;1.20;;;0.80;;
15482;SDS011;7843;50.330;7.312;2023-07-16T14:59:27;3.83;;;0.90;;
15482;SDS011;7843;50.330;7.312;2023-07-16T15:01:53;1.00;;;0.63;;
15482;SDS011;7843;50.330;7.312;2023-07-16T15:04:20;1.83;;;0.80;;
15482;SDS011;7843;50.330;7.312;2023-07-16T15:06:47;1.70;;;0.88;;
15482;SDS011;7843;50.330;7.312;2023-07-16T15:09:14;2.05;;;1.05;;